Time;durP1;ratioP1;P1;durP2;ratioP2;P2;SDS_P1;SDS_P2;PMS_P1;PMS_P2;Temp;Humidity;BMP_temperature;BMP_pressure;BME280_temperature;BME280_humidity;BME280_pressure;Samples;Min_cycle;Max_cycle;Signal;HPM_P1;HPM_P2
2021/12/08 00:00:51;;;;;;;45.83;29.27;;;9.20;80.50;;;;;;5027864;28;20992;-79
2021/12/08 00:03:18;;;;;;;33.40;25.87;;;9.20;80.50;;;;;;5027443;28;20210;-80
2021/12/08 00:05:47;;;;;;;38.70;27.20;;;9.20;80.60;;;;;;5028142;28;20301;-81
2021/12/08 00:08:17;;;;;;;41.90;26.27;;;9.10;80.60;;;;;;5028323;28;20194;-80
2021/12/08 00:13:34;;;;;;;27.70;20.53;;;9.10;80.90;;;;;;5026654;28;20338;-80
2021/12/08 00:16:05;;;;;;;49.97;27.53;;;9.10;80.90;;;;;;5027496;28;20301;-81
2021/12/08 00:18:33;;;;;;;36.13;24.03;;;9.10;80.90;;;;;;5028235;28;20623;-81
2021/12/08 00:21:07;;;;;;;39.13;24.27;;;9.10;80.80;;;;;;5027346;28;20249;-80
2021/12/08 00:23:34;;;;;;;35.80;25.37;;;9.10;80.70;;;;;;5028795;28;20226;-79
2021/12/08 00:26:01;;;;;;;44.90;24.53;;;9.10;80.70;;;;;;5027244;28;20294;-80
2021/12/08 00:28:28;;;;;;;42.53;26.80;;;9.10;80.80;;;;;;5028772;28;20230;-81
2021/12/08 00:30:58;;;;;;;81.57;32.63;;;9.10;80.90;;;;;;5020344;28;20217;-80
2021/12/08 00:33:27;;;;;;;38.87;25.07;;;9.00;80.70;;;;;;5026602;28;20295;-79
2021/12/08 00:35:54;;;;;;;38.97;28.87;;;9.10;80.80;;;;;;5027432;28;20250;-79
2021/12/08 00:38:23;;;;;;;41.90;27.27;;;9.00;80.70;;;;;;5028340;28;20750;-79
2021/12/08 00:40:51;;;;;;;36.47;22.90;;;9.00;80.60;;;;;;5026714;28;20210;-80
2021/12/08 00:43:19;;;;;;;60.93;24.00;;;9.00;80.70;;;;;;5027243;28;20288;-81
2021/12/08 00:45:46;;;;;;;33.53;24.67;;;9.00;80.70;;;;;;5027507;28;20215;-80
2021/12/08 00:48:13;;;;;;;42.60;26.73;;;9.00;80.60;;;;;;5028239;28;20289;-82
2021/12/08 00:50:41;;;;;;;53.80;26.97;;;9.00;80.50;;;;;;5023698;28;20302;-81
2021/12/08 00:53:08;;;;;;;49.40;23.53;;;8.90;79.70;;;;;;5027991;28;20198;-81
2021/12/08 00:55:37;;;;;;;39.73;24.57;;;8.90;79.00;;;;;;5015419;28;20200;-82
2021/12/08 00:58:05;;;;;;;50.07;24.77;;;8.90;78.90;;;;;;5027275;28;20258;-81
2021/12/08 01:00:35;;;;;;;32.47;23.47;;;8.90;78.50;;;;;;5025371;28;20237;-81
2021/12/08 01:03:03;;;;;;;36.33;25.67;;;8.90;78.00;;;;;;5027361;28;20296;-82
2021/12/08 01:05:33;;;;;;;45.73;24.37;;;8.90;77.30;;;;;;5024532;28;20732;-81
2021/12/08 01:08:00;;;;;;;47.63;24.10;;;8.80;77.20;;;;;;5023496;28;20331;-81
2021/12/08 01:10:29;;;;;;;34.83;21.60;;;8.80;77.20;;;;;;5014758;28;20971;-80
2021/12/08 01:12:58;;;;;;;39.53;27.27;;;8.70;77.00;;;;;;5026534;28;20225;-82
2021/12/08 01:15:28;;;;;;;50.87;27.53;;;8.70;77.00;;;;;;5025495;28;20303;-81
2021/12/08 01:17:56;;;;;;;35.33;24.47;;;8.60;76.90;;;;;;5024402;28;20294;-81
2021/12/08 01:20:23;;;;;;;29.10;25.07;;;8.60;77.00;;;;;;5026107;28;20633;-81
2021/12/08 01:22:51;;;;;;;40.37;23.53;;;8.60;77.30;;;;;;5027055;28;20222;-81
2021/12/08 01:25:18;;;;;;;45.20;27.10;;;8.50;77.50;;;;;;5026627;28;20314;-81
2021/12/08 01:27:45;;;;;;;36.37;28.73;;;8.40;77.70;;;;;;5026621;28;20232;-81
2021/12/08 01:30:13;;;;;;;35.90;31.43;;;8.40;78.00;;;;;;5025725;28;20292;-81
2021/12/08 01:32:41;;;;;;;35.70;29.43;;;8.30;78.20;;;;;;5026665;28;20716;-80
2021/12/08 01:35:10;;;;;;;39.50;26.90;;;8.30;78.40;;;;;;5025770;28;20259;-79
2021/12/08 01:37:37;;;;;;;40.90;26.77;;;8.30;78.70;;;;;;5020626;28;20258;-80
2021/12/08 01:40:07;;;;;;;42.67;28.50;;;8.30;79.10;;;;;;5026169;28;20199;-79
2021/12/08 01:42:41;;;;;;;36.33;29.27;;;8.30;79.20;;;;;;5026065;28;20284;-80
2021/12/08 01:47:54;;;;;;;34.97;30.53;;;8.20;79.30;;;;;;5026882;28;20383;-80
2021/12/08 01:50:21;;;;;;;39.03;28.87;;;8.20;79.40;;;;;;5023507;28;20691;-81
2021/12/08 01:52:49;;;;;;;40.23;25.73;;;8.20;79.40;;;;;;5027172;28;20657;-80
2021/12/08 01:55:16;;;;;;;43.57;29.40;;;8.20;79.50;;;;;;5024039;28;20226;-81
2021/12/08 01:57:43;;;;;;;42.87;29.97;;;8.20;79.80;;;;;;5027153;28;20299;-80
2021/12/08 02:00:14;;;;;;;50.23;30.47;;;8.20;79.70;;;;;;5022842;28;20288;-80
2021/12/08 02:02:41;;;;;;;41.53;28.17;;;8.20;80.30;;;;;;5026618;28;20308;-80
2021/12/08 02:05:10;;;;;;;40.27;26.87;;;8.20;79.60;;;;;;5025734;28;20759;-80
2021/12/08 02:07:37;;;;;;;33.53;28.17;;;8.20;79.50;;;;;;5027137;28;20290;-79
2021/12/08 02:10:05;;;;;;;57.97;30.40;;;8.20;79.40;;;;;;5026746;28;20231;-80
2021/12/08 02:12:35;;;;;;;33.00;28.53;;;8.20;79.30;;;;;;5026490;28;20208;-80
2021/12/08 02:15:03;;;;;;;35.63;25.50;;;8.20;79.30;;;;;;5025824;28;20221;-79
2021/12/08 02:17:29;;;;;;;32.93;27.57;;;8.20;79.30;;;;;;5025090;28;20236;-79
2021/12/08 02:19:57;;;;;;;45.20;28.87;;;8.20;79.20;;;;;;5025382;28;20281;-79
2021/12/08 02:22:25;;;;;;;42.83;31.40;;;8.20;79.10;;;;;;5026590;28;20247;-79
2021/12/08 02:24:52;;;;;;;46.83;30.57;;;8.20;79.10;;;;;;5027462;28;20220;-79
2021/12/08 02:27:19;;;;;;;32.87;29.40;;;8.20;79.10;;;;;;5027532;28;20227;-79
2021/12/08 02:29:52;;;;;;;38.93;28.77;;;8.20;79.10;;;;;;5027294;28;20941;-79
2021/12/08 02:46:35;;;;;;;39.60;31.47;;;8.20;79.10;;;;;;5027809;28;20222;-79
2021/12/08 02:48:58;;;;;;;43.20;31.10;;;8.20;79.10;;;;;;5030589;28;21330;-79
2021/12/08 02:51:25;;;;;;;36.13;28.27;;;8.20;79.10;;;;;;5030981;28;20285;-80
2021/12/08 02:53:53;;;;;;;33.10;29.73;;;8.20;79.10;;;;;;5030826;28;20666;-80
2021/12/08 02:56:20;;;;;;;40.07;28.87;;;8.20;79.30;;;;;;5018488;28;20295;-80
2021/12/08 02:58:48;;;;;;;33.40;30.40;;;8.20;79.30;;;;;;5017618;28;20239;-79
2021/12/08 03:01:16;;;;;;;51.23;33.67;;;8.20;79.30;;;;;;5030651;28;20290;-81
2021/12/08 03:03:44;;;;;;;40.70;32.93;;;8.30;79.40;;;;;;5030641;28;20309;-80
2021/12/08 03:06:12;;;;;;;40.67;32.13;;;8.20;79.30;;;;;;5030770;28;20234;-80
2021/12/08 03:08:40;;;;;;;43.83;34.53;;;8.30;79.30;;;;;;5030070;28;20286;-81
2021/12/08 03:11:09;;;;;;;41.90;30.93;;;8.30;79.20;;;;;;5030098;28;20225;-80
2021/12/08 03:13:40;;;;;;;37.50;29.40;;;8.30;79.20;;;;;;5027747;28;20331;-80
2021/12/08 03:16:08;;;;;;;50.00;34.23;;;8.30;79.20;;;;;;5030053;28;20201;-79
2021/12/08 03:18:36;;;;;;;34.63;31.30;;;8.30;79.10;;;;;;5031231;28;20201;-79
2021/12/08 03:21:06;;;;;;;32.93;29.17;;;8.30;79.00;;;;;;5030155;28;20292;-80
2021/12/08 03:23:44;;;;;;;40.77;31.60;;;8.20;78.70;;;;;;5030562;28;20223;-79
2021/12/08 03:26:13;;;;;;;36.50;30.33;;;8.20;78.70;;;;;;5010575;28;20282;-80
2021/12/08 03:28:47;;;;;;;34.03;28.90;;;8.20;78.50;;;;;;5010962;28;20233;-79
2021/12/08 03:31:17;;;;;;;54.83;31.27;;;8.20;78.70;;;;;;5016629;28;20666;-80
2021/12/08 03:33:46;;;;;;;43.07;31.67;;;8.20;78.70;;;;;;5029612;28;20219;-80
2021/12/08 03:36:13;;;;;;;40.30;31.23;;;8.20;78.50;;;;;;5030009;28;20210;-79
2021/12/08 03:38:44;;;;;;;38.47;29.40;;;8.20;78.20;;;;;;5030304;28;20297;-80
2021/12/08 03:41:13;;;;;;;36.80;29.83;;;8.20;78.30;;;;;;5029080;28;20202;-79
2021/12/08 03:43:40;;;;;;;36.57;29.37;;;8.10;78.00;;;;;;5030108;28;20641;-79
2021/12/08 03:46:11;;;;;;;45.70;32.10;;;8.10;77.90;;;;;;5029877;28;20284;-79
2021/12/08 03:48:47;;;;;;;36.47;33.00;;;8.10;77.80;;;;;;5030297;28;20237;-80
2021/12/08 03:51:14;;;;;;;43.27;31.40;;;8.10;77.90;;;;;;5027164;28;20228;-80
2021/12/08 03:53:41;;;;;;;36.60;30.47;;;8.10;77.70;;;;;;5010721;28;20223;-79
2021/12/08 03:56:09;;;;;;;35.63;29.70;;;8.10;77.40;;;;;;5027542;28;20238;-79
2021/12/08 03:58:38;;;;;;;40.20;34.67;;;8.00;77.40;;;;;;5029152;28;20285;-79
2021/12/08 04:01:06;;;;;;;52.53;31.57;;;8.10;77.60;;;;;;5018789;28;20332;-79
2021/12/08 04:03:34;;;;;;;41.97;31.90;;;8.00;77.30;;;;;;5013431;28;20231;-80
2021/12/08 04:06:07;;;;;;;42.50;36.63;;;8.00;77.20;;;;;;5009934;28;20729;-79
2021/12/08 04:08:42;;;;;;;35.83;31.83;;;8.00;77.20;;;;;;5021796;28;20225;-80
2021/12/08 04:11:11;;;;;;;33.63;30.10;;;8.00;77.30;;;;;;5029734;28;20195;-79
2021/12/08 04:13:45;;;;;;;61.37;35.47;;;8.00;77.20;;;;;;5028638;28;20256;-79
2021/12/08 04:16:15;;;;;;;44.40;33.43;;;8.00;76.80;;;;;;5029380;28;20616;-81
2021/12/08 04:18:42;;;;;;;37.77;33.87;;;7.90;76.70;;;;;;5027988;28;20287;-80
2021/12/08 04:21:11;;;;;;;40.07;30.27;;;7.90;77.00;;;;;;5028762;28;20729;-81
2021/12/08 04:23:40;;;;;;;37.83;34.17;;;7.90;77.10;;;;;;5028803;28;20310;-79
2021/12/08 04:26:11;;;;;;;48.77;32.27;;;7.90;77.10;;;;;;5029094;28;20197;-80
2021/12/08 04:28:38;;;;;;;35.67;31.90;;;7.90;77.00;;;;;;5028761;28;20316;-81
2021/12/08 04:31:11;;;;;;;45.93;33.47;;;7.90;76.90;;;;;;5028646;28;20239;-79
2021/12/08 04:33:39;;;;;;;43.90;33.63;;;7.90;76.90;;;;;;5029004;28;20689;-78
2021/12/08 04:36:10;;;;;;;34.57;31.33;;;7.90;76.90;;;;;;5028741;28;20284;-79
2021/12/08 04:38:41;;;;;;;41.87;28.23;;;7.90;76.70;;;;;;5028652;28;20209;-79
2021/12/08 04:41:13;;;;;;;35.87;31.80;;;7.90;76.90;;;;;;5029150;28;20716;-82
2021/12/08 04:43:50;;;;;;;44.47;34.70;;;7.90;76.80;;;;;;5028776;28;20718;-79
2021/12/08 04:46:30;;;;;;;48.47;34.87;;;7.90;76.30;;;;;;5028648;28;20206;-81
2021/12/08 04:49:19;;;;;;;42.67;33.17;;;7.90;76.70;;;;;;5028403;28;20225;-79
2021/12/08 04:51:54;;;;;;;39.23;35.20;;;7.80;76.20;;;;;;5029264;28;20297;-79
2021/12/08 05:03:23;;;;;;;43.00;38.43;;;7.70;76.10;;;;;;5016843;28;20205;-80
2021/12/08 05:06:18;;;;;;;36.37;32.30;;;7.80;76.20;;;;;;5028177;28;20204;-78
2021/12/08 05:08:48;;;;;;;38.97;33.87;;;7.70;75.90;;;;;;5028459;28;20238;-82
2021/12/08 05:11:21;;;;;;;39.07;31.47;;;7.70;75.90;;;;;;5022612;28;20234;-79
2021/12/08 05:13:51;;;;;;;43.07;35.80;;;7.70;76.10;;;;;;5028041;28;20308;-83
2021/12/08 05:16:19;;;;;;;55.17;36.90;;;7.60;76.00;;;;;;5028074;28;20318;-82
2021/12/08 05:18:49;;;;;;;36.27;31.87;;;7.60;76.00;;;;;;5027975;28;20243;-79
2021/12/08 05:21:20;;;;;;;39.63;35.83;;;7.60;76.00;;;;;;5028028;28;20295;-79
2021/12/08 05:23:50;;;;;;;53.90;36.20;;;7.60;76.00;;;;;;5027879;28;20227;-82
2021/12/08 05:26:28;;;;;;;46.90;38.90;;;7.60;76.10;;;;;;5027232;28;20295;-79
2021/12/08 05:28:58;;;;;;;46.83;42.03;;;7.50;76.10;;;;;;5027433;28;20280;-80
2021/12/08 05:31:29;;;;;;;52.93;38.90;;;7.50;76.30;;;;;;5027727;28;20199;-78
2021/12/08 05:33:57;;;;;;;38.03;34.43;;;7.50;76.20;;;;;;5028121;28;20318;-79
2021/12/08 05:36:26;;;;;;;43.47;36.20;;;7.50;76.30;;;;;;5028120;28;20669;-78
2021/12/08 05:38:54;;;;;;;58.33;38.73;;;7.60;76.20;;;;;;5027062;28;20285;-79
2021/12/08 05:41:24;;;;;;;44.57;38.50;;;7.50;76.30;;;;;;5027449;28;20321;-79
2021/12/08 05:43:51;;;;;;;41.90;38.13;;;7.60;76.50;;;;;;5027879;28;20325;-79
2021/12/08 05:46:20;;;;;;;54.10;38.77;;;7.50;76.40;;;;;;5027706;28;20666;-79
2021/12/08 05:48:49;;;;;;;47.73;36.17;;;7.50;76.60;;;;;;5025229;28;20271;-79
2021/12/08 05:51:20;;;;;;;44.70;38.93;;;7.50;76.60;;;;;;5024138;28;20662;-79
2021/12/08 05:53:50;;;;;;;42.70;38.17;;;7.60;76.80;;;;;;5028009;28;20230;-82
2021/12/08 05:56:18;;;;;;;44.97;32.07;;;7.50;77.00;;;;;;5027536;28;20287;-81
2021/12/08 05:58:47;;;;;;;39.37;35.13;;;7.60;77.00;;;;;;5027757;28;20228;-78
2021/12/08 06:01:17;;;;;;;69.60;38.43;;;7.60;77.10;;;;;;5027265;28;20293;-79
2021/12/08 06:03:45;;;;;;;47.00;38.17;;;7.60;77.20;;;;;;5026939;28;20308;-78
2021/12/08 06:06:13;;;;;;;36.73;32.73;;;7.60;77.40;;;;;;5027608;28;20206;-80
2021/12/08 06:08:42;;;;;;;37.83;33.80;;;7.50;77.50;;;;;;5027148;28;20228;-78
2021/12/08 06:11:11;;;;;;;46.03;36.57;;;7.60;77.60;;;;;;5027197;28;20226;-78
2021/12/08 06:13:40;;;;;;;36.03;32.43;;;7.50;77.70;;;;;;5030375;28;20409;-82
2021/12/08 06:16:08;;;;;;;44.50;33.90;;;7.50;77.70;;;;;;5031639;28;20303;-80
2021/12/08 06:18:39;;;;;;;41.77;37.97;;;7.60;77.80;;;;;;5031363;28;20287;-79
2021/12/08 06:21:08;;;;;;;36.80;33.30;;;7.60;78.00;;;;;;5031604;28;20203;-80
2021/12/08 06:23:37;;;;;;;40.87;33.27;;;7.60;78.10;;;;;;5031063;28;20221;-80
2021/12/08 06:26:07;;;;;;;38.47;34.47;;;7.60;78.20;;;;;;5031347;28;20742;-79
2021/12/08 06:28:34;;;;;;;48.63;33.47;;;7.60;78.20;;;;;;5031187;28;20322;-82
2021/12/08 06:31:02;;;;;;;46.33;38.23;;;7.60;78.20;;;;;;5031429;28;20282;-80
2021/12/08 06:33:31;;;;;;;57.63;33.47;;;7.60;78.10;;;;;;5030898;28;20310;-79
2021/12/08 06:36:02;;;;;;;43.77;32.43;;;7.60;78.10;;;;;;5030654;28;20207;-79
2021/12/08 06:38:29;;;;;;;32.53;28.43;;;7.60;77.80;;;;;;5020141;28;20291;-79
2021/12/08 06:41:01;;;;;;;47.90;36.60;;;7.60;77.70;;;;;;5030675;28;20549;-79
2021/12/08 06:43:34;;;;;;;58.00;34.53;;;7.70;77.80;;;;;;5026641;28;20256;-78
2021/12/08 06:46:02;;;;;;;37.47;33.57;;;7.60;77.70;;;;;;5028318;28;20369;-79
2021/12/08 06:48:32;;;;;;;43.33;33.17;;;7.70;77.70;;;;;;5026529;28;20241;-80
2021/12/08 06:51:03;;;;;;;53.23;37.93;;;7.60;77.60;;;;;;5029884;28;20206;-81
2021/12/08 06:53:31;;;;;;;41.40;33.07;;;7.60;77.60;;;;;;5030037;28;20320;-79
2021/12/08 06:56:02;;;;;;;35.00;31.10;;;7.70;77.60;;;;;;5030828;28;20211;-79
2021/12/08 06:58:34;;;;;;;51.70;37.43;;;7.60;77.40;;;;;;5030476;28;20289;-81
2021/12/08 07:01:15;;;;;;;61.37;38.70;;;7.60;77.40;;;;;;5028051;28;20323;-80
2021/12/08 07:03:46;;;;;;;44.50;35.60;;;7.60;77.40;;;;;;5030963;28;20225;-78
2021/12/08 07:06:39;;;;;;;39.83;36.10;;;7.60;77.10;;;;;;5029300;28;20199;-79
2021/12/08 07:09:09;;;;;;;42.50;38.23;;;7.60;77.20;;;;;;5023602;28;20260;-78
2021/12/08 07:11:36;;;;;;;41.17;37.20;;;7.50;77.30;;;;;;5031222;28;20299;-78
2021/12/08 07:14:05;;;;;;;52.47;38.17;;;7.50;77.20;;;;;;5029776;28;20673;-78
2021/12/08 07:16:35;;;;;;;45.03;35.27;;;7.50;77.30;;;;;;5030576;28;20293;-78
2021/12/08 07:19:10;;;;;;;61.63;37.90;;;7.50;77.30;;;;;;5026233;28;20202;-80
2021/12/08 07:21:41;;;;;;;55.70;37.53;;;7.50;77.20;;;;;;5029476;28;20206;-80
2021/12/08 07:24:12;;;;;;;43.23;38.73;;;7.50;77.10;;;;;;5028345;28;20247;-80
2021/12/08 07:26:40;;;;;;;41.27;37.00;;;7.50;77.30;;;;;;5030416;28;20289;-78
2021/12/08 07:29:11;;;;;;;40.03;36.67;;;7.50;77.20;;;;;;5029110;28;20320;-80
2021/12/08 07:31:41;;;;;;;45.40;34.53;;;7.50;77.10;;;;;;5029696;28;20243;-81
2021/12/08 07:34:15;;;;;;;61.47;35.93;;;7.50;77.20;;;;;;5026524;28;20233;-79
2021/12/08 07:36:44;;;;;;;43.30;38.73;;;7.50;77.10;;;;;;5029676;28;20668;-81
2021/12/08 07:39:16;;;;;;;46.03;40.90;;;7.50;77.10;;;;;;5030289;28;20293;-81
2021/12/08 07:41:48;;;;;;;41.10;32.70;;;7.60;77.00;;;;;;5029519;28;20290;-80
2021/12/08 07:44:17;;;;;;;43.37;38.57;;;7.50;76.80;;;;;;5029800;28;20221;-78
2021/12/08 07:46:47;;;;;;;38.70;34.70;;;7.60;77.00;;;;;;5029524;28;20195;-78
2021/12/08 07:49:18;;;;;;;39.93;32.63;;;7.60;77.00;;;;;;5029503;28;20225;-77
2021/12/08 07:51:49;;;;;;;42.60;37.47;;;7.60;77.00;;;;;;5027255;28;20200;-77
2021/12/08 07:54:18;;;;;;;39.50;34.70;;;7.60;77.00;;;;;;5029638;28;20251;-78
2021/12/08 07:56:50;;;;;;;46.83;34.90;;;7.60;77.00;;;;;;5025991;28;20240;-77
2021/12/08 07:59:20;;;;;;;38.97;34.57;;;7.60;76.90;;;;;;5025969;28;20287;-79
2021/12/08 08:01:50;;;;;;;42.80;34.30;;;7.60;76.40;;;;;;5029895;28;20631;-79
2021/12/08 08:04:21;;;;;;;53.30;38.73;;;7.60;76.70;;;;;;5028747;28;20756;-78
2021/12/08 08:06:51;;;;;;;45.10;39.17;;;7.60;76.50;;;;;;5029138;28;20288;-78
2021/12/08 08:09:24;;;;;;;54.17;33.47;;;7.60;76.50;;;;;;5028825;28;20292;-79
2021/12/08 08:11:56;;;;;;;43.63;35.43;;;7.60;76.40;;;;;;5029409;28;20289;-76
2021/12/08 08:14:27;;;;;;;56.07;38.63;;;7.60;76.50;;;;;;5020587;28;20230;-79
2021/12/08 08:16:57;;;;;;;34.37;30.83;;;7.60;76.10;;;;;;5026336;28;20213;-79
2021/12/08 08:19:29;;;;;;;53.10;41.63;;;7.60;76.40;;;;;;5026338;28;20195;-78
2021/12/08 08:22:02;;;;;;;41.93;37.23;;;7.60;76.30;;;;;;5029227;28;20286;-77
2021/12/08 08:24:30;;;;;;;45.73;38.00;;;7.60;75.90;;;;;;5032763;28;20306;-78
2021/12/08 08:27:00;;;;;;;39.57;35.00;;;7.60;76.00;;;;;;5026820;28;20284;-79
2021/12/08 08:29:29;;;;;;;50.60;39.70;;;7.60;75.90;;;;;;5025948;28;20566;-79
2021/12/08 08:32:00;;;;;;;44.70;36.43;;;7.60;76.00;;;;;;5024856;28;20283;-81
2021/12/08 08:34:33;;;;;;;50.27;34.43;;;7.60;75.90;;;;;;5010080;28;20769;-78
2021/12/08 08:37:00;;;;;;;51.07;38.93;;;7.60;75.80;;;;;;5026966;28;20198;-78
2021/12/08 08:39:31;;;;;;;45.60;40.67;;;7.60;76.70;;;;;;5026381;28;20227;-80
2021/12/08 08:42:01;;;;;;;46.00;41.83;;;7.60;75.90;;;;;;5029550;28;20226;-82
2021/12/08 08:44:34;;;;;;;44.07;40.13;;;7.50;75.70;;;;;;5027982;28;20235;-77
2021/12/08 08:47:07;;;;;;;41.97;35.20;;;7.60;75.80;;;;;;5029340;28;20214;-78
2021/12/08 08:49:39;;;;;;;41.40;37.20;;;7.60;75.80;;;;;;5028588;28;20247;-79
2021/12/08 08:52:10;;;;;;;56.03;39.43;;;7.50;75.80;;;;;;5026629;28;20210;-83
2021/12/08 08:54:44;;;;;;;48.60;42.97;;;7.50;75.90;;;;;;5024372;28;20222;-81
2021/12/08 08:57:15;;;;;;;40.60;37.23;;;7.50;75.80;;;;;;5028810;28;20198;-81
2021/12/08 08:59:49;;;;;;;46.13;39.53;;;7.50;75.80;;;;;;5027863;28;20276;-77
2021/12/08 09:02:20;;;;;;;43.30;38.83;;;7.50;75.90;;;;;;5026347;28;20291;-77
2021/12/08 09:04:51;;;;;;;47.40;39.57;;;7.50;76.10;;;;;;5027885;28;20267;-77
2021/12/08 09:07:23;;;;;;;50.60;42.47;;;7.60;76.40;;;;;;5027540;28;20208;-80
2021/12/08 09:09:52;;;;;;;45.60;39.43;;;7.60;76.00;;;;;;5027035;28;20749;-77
2021/12/08 09:12:22;;;;;;;40.03;35.27;;;7.60;76.00;;;;;;5010087;28;20205;-79
2021/12/08 09:14:56;;;;;;;47.43;36.33;;;7.60;76.00;;;;;;5024469;28;20275;-77
2021/12/08 09:17:25;;;;;;;43.47;36.87;;;7.60;76.00;;;;;;5031508;28;20296;-76
2021/12/08 09:20:00;;;;;;;46.00;41.03;;;7.60;75.80;;;;;;5033410;28;20242;-77
2021/12/08 09:22:34;;;;;;;56.60;38.50;;;7.60;75.90;;;;;;5028427;28;20199;-78
2021/12/08 09:25:09;;;;;;;41.27;37.10;;;7.60;75.80;;;;;;5028122;28;20682;-77
2021/12/08 09:27:39;;;;;;;38.40;33.50;;;7.60;75.90;;;;;;5028329;28;20207;-84
2021/12/08 09:30:12;;;;;;;46.93;37.23;;;7.60;75.80;;;;;;5023392;28;20319;-78
2021/12/08 09:32:44;;;;;;;41.03;34.10;;;7.60;75.80;;;;;;5024206;28;20197;-84
2021/12/08 09:35:15;;;;;;;37.40;33.27;;;7.50;75.80;;;;;;5009026;28;20299;-77
2021/12/08 09:37:46;;;;;;;43.27;35.93;;;7.60;75.90;;;;;;5008808;28;20301;-77
2021/12/08 09:40:22;;;;;;;44.63;36.57;;;7.60;75.90;;;;;;5008767;28;20271;-81
2021/12/08 09:42:53;;;;;;;54.33;42.43;;;7.60;75.90;;;;;;5017782;28;20205;-81
2021/12/08 09:45:24;;;;;;;52.30;40.97;;;7.60;75.90;;;;;;5027675;28;20577;-82
2021/12/08 09:47:52;;;;;;;42.60;38.30;;;7.60;75.80;;;;;;5029760;28;20206;-78
2021/12/08 09:50:19;;;;;;;42.33;37.87;;;7.60;75.90;;;;;;5030240;28;20317;-84
2021/12/08 09:52:48;;;;;;;40.67;36.47;;;7.60;75.90;;;;;;5032250;28;20276;-77
2021/12/08 09:55:17;;;;;;;50.30;38.23;;;7.60;75.90;;;;;;5031540;28;20313;-77
2021/12/08 09:57:45;;;;;;;39.10;35.20;;;7.60;75.90;;;;;;5032344;28;20280;-80
2021/12/08 10:00:17;;;;;;;44.10;39.37;;;7.70;76.00;;;;;;5031740;28;20294;-78
2021/12/08 10:02:46;;;;;;;41.40;37.50;;;7.60;75.80;;;;;;5040674;28;20550;-77
2021/12/08 10:05:16;;;;;;;44.33;40.63;;;7.60;75.90;;;;;;5034798;28;20256;-77
2021/12/08 10:07:44;;;;;;;48.43;43.20;;;7.70;75.90;;;;;;5031768;28;20287;-77
2021/12/08 10:10:15;;;;;;;50.77;34.80;;;7.70;76.00;;;;;;5031554;28;20229;-78
2021/12/08 10:12:42;;;;;;;42.43;31.80;;;7.70;76.00;;;;;;5030161;28;20239;-79
2021/12/08 10:15:13;;;;;;;43.87;34.10;;;7.70;75.90;;;;;;5030408;28;20257;-78
2021/12/08 10:17:39;;;;;;;48.97;39.07;;;7.80;75.70;;;;;;5030757;28;20611;-83
2021/12/08 10:20:13;;;;;;;41.60;37.40;;;7.80;76.00;;;;;;5031640;28;20926;-78
2021/12/08 10:22:43;;;;;;;42.37;35.17;;;7.80;76.10;;;;;;5031790;28;20257;-83
2021/12/08 10:25:14;;;;;;;56.40;36.27;;;7.80;76.00;;;;;;5031611;28;20248;-77
2021/12/08 10:28:07;;;;;;;53.33;37.80;;;7.90;75.70;;;;;;5031340;28;20294;-78
2021/12/08 10:30:38;;;;;;;82.67;44.17;;;7.90;75.70;;;;;;5024948;28;20752;-80
2021/12/08 10:33:12;;;;;;;39.50;35.53;;;7.90;75.80;;;;;;5026571;28;20645;-77
2021/12/08 10:35:48;;;;;;;40.40;36.47;;;7.90;76.00;;;;;;5017896;28;20207;-81
2021/12/08 10:38:19;;;;;;;43.47;34.70;;;7.90;75.60;;;;;;5015486;28;20656;-78
2021/12/08 10:41:00;;;;;;;41.67;37.27;;;7.90;75.60;;;;;;5031190;28;20302;-78
2021/12/08 10:43:28;;;;;;;56.57;40.30;;;8.00;76.10;;;;;;5031459;28;20231;-78
2021/12/08 10:46:08;;;;;;;47.63;37.17;;;8.00;75.20;;;;;;5031205;28;20265;-79
2021/12/08 10:48:40;;;;;;;45.03;34.17;;;8.00;75.50;;;;;;5030697;28;20232;-83
2021/12/08 10:54:26;;;;;;;34.13;31.07;;;8.10;75.60;;;;;;5031371;28;20628;-81
2021/12/08 10:56:56;;;;;;;37.10;33.40;;;8.20;75.50;;;;;;5031198;28;20213;-83
2021/12/08 10:59:24;;;;;;;34.77;30.30;;;8.20;75.40;;;;;;5030887;28;20205;-80
2021/12/08 11:01:51;;;;;;;52.73;30.87;;;8.30;75.40;;;;;;5030104;28;20239;-80
2021/12/08 11:04:19;;;;;;;83.53;35.60;;;8.30;75.30;;;;;;5028095;28;20701;-78
2021/12/08 11:06:48;;;;;;;39.17;32.23;;;8.30;75.30;;;;;;5029166;28;20208;-79
2021/12/08 11:09:19;;;;;;;32.50;25.17;;;8.40;75.40;;;;;;5030593;28;20374;-79
2021/12/08 11:11:47;;;;;;;36.90;30.90;;;8.50;75.60;;;;;;5031011;28;20223;-78
2021/12/08 11:14:14;;;;;;;38.80;28.40;;;8.50;74.90;;;;;;5029857;28;20632;-78
2021/12/08 11:16:43;;;;;;;42.47;28.80;;;8.60;74.80;;;;;;5031065;28;20200;-78
2021/12/08 11:19:13;;;;;;;45.53;27.03;;;8.60;74.90;;;;;;5030794;28;20637;-79
2021/12/08 11:21:43;;;;;;;37.57;30.23;;;8.70;74.30;;;;;;5030998;28;20272;-80
2021/12/08 11:24:16;;;;;;;33.33;25.90;;;8.80;74.60;;;;;;5030528;28;20312;-81
2021/12/08 11:26:47;;;;;;;34.90;26.40;;;8.90;74.20;;;;;;5030440;28;20203;-84
2021/12/08 11:29:17;;;;;;;38.63;25.97;;;8.90;74.50;;;;;;5028628;28;20207;-82
2021/12/08 11:31:47;;;;;;;34.77;26.70;;;9.00;74.10;;;;;;5030211;28;20297;-82
2021/12/08 11:34:18;;;;;;;50.20;26.93;;;9.20;74.70;;;;;;5029944;28;20225;-77
2021/12/08 11:36:46;;;;;;;34.63;26.00;;;9.30;74.20;;;;;;5030045;28;20299;-79
2021/12/08 11:39:16;;;;;;;48.87;22.37;;;9.40;73.40;;;;;;5027887;28;20204;-77
2021/12/08 11:41:45;;;;;;;37.17;22.57;;;9.50;72.30;;;;;;5027307;28;20201;-77
2021/12/08 11:44:15;;;;;;;37.10;22.67;;;9.60;72.30;;;;;;5028324;28;20337;-78
2021/12/08 11:46:47;;;;;;;23.80;20.23;;;9.60;71.00;;;;;;5028282;28;20295;-76
2021/12/08 11:49:14;;;;;;;44.57;23.17;;;9.70;71.50;;;;;;5027996;28;20284;-76
2021/12/08 11:51:54;;;;;;;43.27;22.13;;;9.70;71.40;;;;;;5027935;28;20256;-76
2021/12/08 11:54:48;;;;;;;42.90;25.70;;;9.80;72.00;;;;;;5025924;28;20647;-76
2021/12/08 11:57:19;;;;;;;30.53;21.67;;;9.80;70.40;;;;;;5027739;28;20204;-76
2021/12/08 11:59:55;;;;;;;45.70;22.47;;;9.80;70.40;;;;;;5029596;28;20298;-77
2021/12/08 12:02:24;;;;;;;38.40;22.33;;;9.80;70.90;;;;;;5029120;28;20204;-77
2021/12/08 12:04:51;;;;;;;51.60;23.73;;;9.80;71.70;;;;;;5029256;28;20255;-77
2021/12/08 12:07:18;;;;;;;35.10;23.23;;;9.80;70.80;;;;;;5029301;28;20211;-77
2021/12/08 12:09:47;;;;;;;27.83;19.33;;;9.80;71.40;;;;;;5029442;28;20227;-77
2021/12/08 12:12:15;;;;;;;39.07;26.07;;;9.90;70.90;;;;;;5029256;28;20210;-78
2021/12/08 12:14:42;;;;;;;42.70;20.70;;;9.90;70.30;;;;;;5029180;28;20263;-76
2021/12/08 12:17:10;;;;;;;30.50;18.63;;;9.90;71.30;;;;;;5029539;28;20239;-77
2021/12/08 12:19:45;;;;;;;36.10;20.90;;;10.00;70.50;;;;;;5029559;28;20295;-76
2021/12/08 12:22:30;;;;;;;49.50;23.83;;;10.00;69.70;;;;;;5029093;28;20228;-76
2021/12/08 12:25:20;;;;;;;48.70;21.80;;;10.10;70.00;;;;;;5023096;23;20298;-77
2021/12/08 12:27:56;;;;;;;36.27;21.83;;;10.10;69.10;;;;;;5008957;28;20318;-78
2021/12/08 12:30:30;;;;;;;30.23;21.33;;;10.10;69.10;;;;;;5008832;28;20674;-76
2021/12/08 12:32:57;;;;;;;44.00;22.40;;;10.10;68.50;;;;;;5008368;28;20240;-76
2021/12/08 12:35:30;;;;;;;31.97;20.60;;;10.10;68.90;;;;;;5135193;23;21061;-76
2021/12/08 12:38:02;;;;;;;37.10;22.03;;;10.10;69.10;;;;;;5009029;28;20211;-76
2021/12/08 12:40:36;;;;;;;31.97;21.80;;;10.00;68.90;;;;;;5009523;28;20201;-77
2021/12/08 12:43:04;;;;;;;48.77;22.93;;;10.00;69.50;;;;;;5006580;28;20608;-77
2021/12/08 12:45:37;;;;;;;41.47;23.83;;;10.00;69.80;;;;;;5028250;28;20260;-76
2021/12/08 12:48:10;;;;;;;34.10;22.60;;;10.00;69.70;;;;;;5028293;28;20254;-76
2021/12/08 12:50:57;;;;;;;31.60;19.80;;;10.00;69.00;;;;;;5028827;28;20350;-78
2021/12/08 12:53:41;;;;;;;31.87;20.57;;;10.00;69.00;;;;;;5028850;28;20234;-77
2021/12/08 12:56:12;;;;;;;42.10;25.00;;;10.00;69.00;;;;;;5028112;28;20294;-76
2021/12/08 12:58:45;;;;;;;27.93;22.03;;;10.00;69.40;;;;;;5029059;28;20287;-77
2021/12/08 13:01:15;;;;;;;77.33;24.40;;;10.00;69.60;;;;;;5028632;28;20289;-76
2021/12/08 13:03:49;;;;;;;35.77;26.57;;;10.00;69.90;;;;;;5028914;28;20228;-76
2021/12/08 13:06:39;;;;;;;35.67;23.10;;;10.00;70.00;;;;;;5028441;28;20296;-76
2021/12/08 13:09:07;;;;;;;31.27;20.57;;;10.00;69.90;;;;;;5028401;28;20827;-76
2021/12/08 13:11:59;;;;;;;39.77;22.40;;;10.00;69.40;;;;;;5028520;28;20322;-76
2021/12/08 13:14:29;;;;;;;43.73;25.60;;;10.00;69.60;;;;;;5027324;28;20277;-76
2021/12/08 13:17:26;;;;;;;36.40;23.77;;;10.10;69.70;;;;;;5028152;28;20703;-76
2021/12/08 13:19:55;;;;;;;69.07;21.80;;;10.10;69.60;;;;;;4991347;28;20209;-76
2021/12/08 13:23:01;;;;;;;39.97;18.70;;;10.10;70.00;;;;;;5025152;28;20258;-76
2021/12/08 13:25:46;;;;;;;29.60;19.73;;;10.10;70.00;;;;;;5024392;28;20587;-77